Time;durP1;ratioP1;P1;durP2;ratioP2;P2;SDS_P1;SDS_P2;PMS_P1;PMS_P2;Temp;Humidity;BMP_temperature;BMP_pressure;BME280_temperature;BME280_humidity;BME280_pressure;Samples;Min_cycle;Max_cycle;Signal;HPM_P1;HPM_P2
2020/12/21 00:01:38;;;;;;;11.40;10.07;;;;;;;3.89;78.44;96382.59;5068145;28;20238;-77
2020/12/21 00:04:04;;;;;;;11.17;9.77;;;;;;;3.90;78.73;96383.41;5068482;28;20200;-78
2020/12/21 00:06:29;;;;;;;11.67;10.37;;;;;;;3.92;78.81;96377.28;5068094;28;20248;-78
2020/12/21 00:08:56;;;;;;;11.67;10.47;;;;;;;3.92;79.10;96373.91;5068179;28;20206;-78
2020/12/21 00:11:21;;;;;;;12.77;10.57;;;;;;;3.76;80.56;96369.19;5068058;28;20196;-75
2020/12/21 00:13:48;;;;;;;12.17;10.63;;;;;;;3.71;81.44;96368.69;5067916;28;20240;-78
2020/12/21 00:16:14;;;;;;;11.73;10.53;;;;;;;3.71;81.21;96366.97;5067736;28;20213;-78
2020/12/21 00:18:40;;;;;;;11.57;10.03;;;;;;;3.75;81.15;96365.00;5068245;28;20257;-78
2020/12/21 00:21:09;;;;;;;10.77;9.67;;;;;;;3.70;82.27;96362.78;5067850;28;20688;-75
2020/12/21 00:23:35;;;;;;;11.43;10.07;;;;;;;3.77;81.54;96363.97;5067921;28;20200;-78
2020/12/21 00:26:01;;;;;;;11.10;9.90;;;;;;;3.86;81.66;96361.63;5067522;28;20622;-74
2020/12/21 00:28:27;;;;;;;10.57;9.47;;;;;;;3.91;81.27;96359.56;5067679;28;20193;-74
2020/12/21 00:30:54;;;;;;;10.67;9.57;;;;;;;3.95;81.31;96361.75;5067551;28;20626;-80
2020/12/21 00:33:19;;;;;;;11.70;9.37;;;;;;;4.00;80.92;96354.59;5067805;28;20205;-76
2020/12/21 00:35:45;;;;;;;10.83;9.73;;;;;;;4.04;81.10;96355.16;5067086;28;20216;-75
2020/12/21 00:38:11;;;;;;;9.97;8.97;;;;;;;4.06;80.81;96351.56;5068064;28;20223;-77
2020/12/21 00:40:37;;;;;;;10.13;9.03;;;;;;;4.02;81.72;96351.94;5067371;28;20201;-74
2020/12/21 00:43:03;;;;;;;10.13;9.03;;;;;;;3.98;81.77;96361.53;5067412;28;20288;-79
2020/12/21 00:45:29;;;;;;;10.17;9.10;;;;;;;4.01;81.99;96356.22;5067467;28;20213;-74
2020/12/21 00:47:56;;;;;;;10.30;9.23;;;;;;;4.05;81.97;96370.31;5067242;28;20208;-78
2020/12/21 00:50:25;;;;;;;9.60;8.70;;;;;;;4.05;82.13;96370.31;5067157;28;20201;-78
2020/12/21 00:52:51;;;;;;;9.60;8.60;;;;;;;4.11;81.57;96381.78;5066942;28;20200;-76
2020/12/21 00:55:16;;;;;;;10.13;8.97;;;;;;;4.19;81.33;96381.22;5066368;28;20297;-78
2020/12/21 00:57:42;;;;;;;10.40;9.03;;;;;;;4.23;81.14;96382.59;5066809;28;20203;-79
2020/12/21 01:00:08;;;;;;;10.23;9.13;;;;;;;4.27;80.98;96383.97;5067152;28;20291;-78
2020/12/21 01:02:34;;;;;;;10.20;9.20;;;;;;;4.29;80.74;96384.66;5066835;28;20201;-79
2020/12/21 01:05:01;;;;;;;10.83;9.00;;;;;;;4.33;80.84;96386.06;5066966;28;20578;-76
2020/12/21 01:07:27;;;;;;;9.90;8.90;;;;;;;4.36;80.63;96388.38;5066996;28;20262;-78
2020/12/21 01:09:53;;;;;;;10.03;9.03;;;;;;;4.39;80.87;96388.13;5067060;28;20633;-78
2020/12/21 01:12:19;;;;;;;10.20;9.10;;;;;;;4.40;81.10;96390.56;5067107;28;20258;-76
2020/12/21 01:14:45;;;;;;;10.03;8.97;;;;;;;4.43;81.07;96386.94;5066736;28;20232;-79
2020/12/21 01:17:11;;;;;;;9.90;8.90;;;;;;;4.46;81.37;96395.19;5066930;28;20612;-75
2020/12/21 01:19:36;;;;;;;10.07;9.07;;;;;;;4.47;80.90;96385.78;5067088;28;20208;-76
2020/12/21 01:22:04;;;;;;;10.57;8.87;;;;;;;4.49;81.16;96406.88;5066961;28;20200;-75
2020/12/21 01:24:30;;;;;;;10.40;9.07;;;;;;;4.42;82.50;96398.09;5066299;28;20296;-79
2020/12/21 01:26:56;;;;;;;9.23;8.30;;;;;;;4.45;81.79;96413.13;5066960;28;20201;-77
2020/12/21 01:29:22;;;;;;;10.23;9.17;;;;;;;4.49;81.65;96411.97;5067089;28;20871;-76
2020/12/21 01:31:47;;;;;;;10.57;9.47;;;;;;;4.51;81.96;96415.22;5066667;28;20197;-76
2020/12/21 01:34:14;;;;;;;9.50;8.60;;;;;;;4.51;81.76;96412.69;5066673;28;20217;-78
2020/12/21 01:36:40;;;;;;;11.03;9.13;;;;;;;4.54;81.52;96411.63;5065934;28;20303;-78
2020/12/21 01:39:07;;;;;;;10.60;9.50;;;;;;;4.57;81.14;96409.66;5066502;28;20279;-76
2020/12/21 01:41:33;;;;;;;9.67;8.77;;;;;;;4.56;81.57;96405.50;5066852;28;20201;-75
2020/12/21 01:43:59;;;;;;;10.07;8.87;;;;;;;4.57;81.57;96393.53;5066329;28;20691;-79
2020/12/21 01:46:26;;;;;;;10.23;9.13;;;;;;;4.60;81.09;96403.50;5066718;28;20700;-80
2020/12/21 01:48:53;;;;;;;9.87;8.80;;;;;;;4.62;81.67;96409.31;5066287;28;20612;-76
2020/12/21 01:51:24;;;;;;;10.20;9.07;;;;;;;4.66;81.20;96405.56;5066824;28;20624;-74
2020/12/21 01:53:50;;;;;;;9.87;8.80;;;;;;;4.65;81.70;96393.75;5066052;28;20201;-78
2020/12/21 01:56:18;;;;;;;11.17;9.97;;;;;;;4.65;81.62;96397.09;5066177;28;20286;-77
2020/12/21 01:58:47;;;;;;;11.07;9.80;;;;;;;4.60;82.59;96390.75;5066115;28;20200;-75
2020/12/21 02:01:15;;;;;;;10.20;9.03;;;;;;;4.58;82.65;96398.53;5066481;28;20197;-74
2020/12/21 02:03:42;;;;;;;9.43;8.53;;;;;;;4.60;82.70;96403.50;5066061;28;20207;-77
2020/12/21 02:06:08;;;;;;;10.03;8.87;;;;;;;4.62;82.58;96399.88;5065761;28;20208;-77
2020/12/21 02:08:34;;;;;;;10.50;8.90;;;;;;;4.65;82.57;96403.94;5066492;28;20192;-76
2020/12/21 02:11:01;;;;;;;9.57;8.67;;;;;;;4.69;82.83;96403.59;5066260;28;20254;-74
2020/12/21 02:13:27;;;;;;;10.17;9.17;;;;;;;4.72;82.57;96408.47;5066443;28;20204;-75
2020/12/21 02:15:54;;;;;;;9.37;8.37;;;;;;;4.73;82.76;96397.31;5066313;28;20225;-78
2020/12/21 02:18:19;;;;;;;10.60;9.50;;;;;;;4.78;82.56;96399.53;5066484;28;20212;-78
2020/12/21 02:20:46;;;;;;;10.00;9.00;;;;;;;4.79;82.77;96401.97;5066215;28;20201;-79
2020/12/21 02:23:12;;;;;;;10.10;8.90;;;;;;;4.78;82.46;96402.88;5066474;28;20200;-79
2020/12/21 02:25:38;;;;;;;10.00;9.00;;;;;;;4.75;83.35;96404.84;5065650;28;20215;-79
2020/12/21 02:28:04;;;;;;;9.73;8.67;;;;;;;4.75;83.36;96404.84;5066305;28;20684;-78
2020/12/21 02:30:30;;;;;;;10.43;9.33;;;;;;;4.77;83.69;96410.66;5066055;28;20250;-78
2020/12/21 02:32:56;;;;;;;10.37;9.37;;;;;;;4.77;83.92;96408.09;5066114;28;20622;-76
2020/12/21 02:35:22;;;;;;;9.77;8.77;;;;;;;4.81;83.65;96401.84;5065203;28;20233;-78
2020/12/21 02:37:48;;;;;;;9.57;8.67;;;;;;;4.84;83.29;96396.47;5066354;28;20201;-78
2020/12/21 02:40:14;;;;;;;9.70;8.70;;;;;;;4.80;84.90;96390.00;5065944;28;20273;-78
2020/12/21 02:42:40;;;;;;;10.20;9.20;;;;;;;4.77;84.78;96382.59;5066446;28;20208;-78
2020/12/21 02:45:06;;;;;;;10.07;9.07;;;;;;;4.83;84.67;96392.28;5065667;28;20754;-79
2020/12/21 02:47:32;;;;;;;9.93;8.37;;;;;;;4.86;84.40;96394.59;5066377;28;20200;-80
2020/12/21 02:49:58;;;;;;;9.50;8.50;;;;;;;4.91;84.30;96389.16;5069789;28;20209;-78
2020/12/21 02:52:24;;;;;;;9.33;8.40;;;;;;;4.93;84.49;96385.53;5069786;28;20916;-74
2020/12/21 02:54:51;;;;;;;9.10;8.20;;;;;;;4.98;84.12;96385.19;5068988;28;20224;-75
2020/12/21 02:57:17;;;;;;;10.00;9.00;;;;;;;4.96;84.95;96387.03;5069722;28;20204;-79
2020/12/21 02:59:43;;;;;;;9.73;8.20;;;;;;;4.98;84.64;96390.28;5069525;28;20726;-76
2020/12/21 03:02:09;;;;;;;9.67;8.67;;;;;;;5.00;84.31;96384.13;5069081;28;20197;-76
2020/12/21 03:04:35;;;;;;;8.87;8.07;;;;;;;5.03;84.68;96390.72;5068967;28;20208;-76
2020/12/21 03:07:01;;;;;;;9.27;8.13;;;;;;;5.05;85.12;96392.22;5069298;28;20732;-79
2020/12/21 03:09:27;;;;;;;10.13;8.93;;;;;;;5.04;85.57;96390.59;5069604;28;20201;-78
2020/12/21 03:11:55;;;;;;;9.60;8.60;;;;;;;5.06;85.10;96388.72;5069765;28;20193;-75
2020/12/21 03:14:21;;;;;;;9.00;8.13;;;;;;;5.04;86.38;96390.59;5069053;28;20251;-79
2020/12/21 03:16:47;;;;;;;9.70;8.70;;;;;;;5.05;86.17;96397.31;5069202;28;20216;-78
2020/12/21 03:19:12;;;;;;;8.87;7.93;;;;;;;5.07;86.56;96390.34;5069390;28;20204;-75
2020/12/21 03:21:38;;;;;;;9.07;8.17;;;;;;;5.11;86.43;96396.03;5049716;28;20221;-74
2020/12/21 03:24:04;;;;;;;9.40;8.50;;;;;;;5.13;86.25;96392.44;5049106;28;20201;-79
2020/12/21 03:26:30;;;;;;;9.60;8.60;;;;;;;5.13;86.53;96386.50;5067606;28;20224;-78
2020/12/21 03:28:57;;;;;;;9.07;8.17;;;;;;;5.13;86.44;96392.44;5069256;28;20200;-76
2020/12/21 03:31:23;;;;;;;9.33;8.43;;;;;;;5.15;86.68;96392.31;5068480;28;20193;-75
2020/12/21 03:33:49;;;;;;;10.03;8.20;;;;;;;5.16;86.17;96396.47;5068266;28;20201;-79
2020/12/21 03:36:15;;;;;;;10.00;8.80;;;;;;;5.18;85.60;96394.63;5069016;28;20220;-76
2020/12/21 03:38:41;;;;;;;9.10;8.20;;;;;;;5.18;86.66;96390.31;5068962;28;20197;-74
2020/12/21 03:41:06;;;;;;;9.50;8.60;;;;;;;5.18;86.23;96389.50;5068895;28;20201;-77
2020/12/21 03:43:32;;;;;;;9.07;8.17;;;;;;;5.19;85.91;96394.50;5068634;28;20871;-78
2020/12/21 03:45:59;;;;;;;9.97;8.20;;;;;;;5.20;85.93;96390.97;5068607;28;20217;-79
2020/12/21 03:48:25;;;;;;;9.70;8.70;;;;;;;5.20;85.71;96387.63;5068369;28;20691;-76
2020/12/21 03:50:51;;;;;;;9.57;8.57;;;;;;;5.20;85.46;96390.97;5068694;28;20208;-79
2020/12/21 03:53:17;;;;;;;8.60;7.80;;;;;;;5.22;85.22;96398.50;5068393;28;20193;-78
2020/12/21 03:55:43;;;;;;;9.67;8.73;;;;;;;5.23;85.05;96384.81;5067697;28;20617;-76
2020/12/21 03:58:09;;;;;;;8.63;7.83;;;;;;;5.23;85.05;96382.25;5067884;28;20189;-78
2020/12/21 04:00:35;;;;;;;9.07;8.10;;;;;;;5.25;85.42;96382.16;5068388;28;20200;-79
2020/12/21 04:03:01;;;;;;;9.10;8.20;;;;;;;5.26;85.52;96384.56;5067841;28;20613;-75
2020/12/21 04:05:29;;;;;;;10.00;8.47;;;;;;;5.27;85.13;96383.66;5068007;28;20217;-78
2020/12/21 04:07:55;;;;;;;9.73;8.73;;;;;;;5.27;85.51;96387.94;5067992;28;20196;-78
2020/12/21 04:10:21;;;;;;;11.43;9.93;;;;;;;5.24;87.00;96375.41;5068245;28;20204;-76
2020/12/21 04:12:47;;;;;;;11.63;10.43;;;;;;;5.16;88.52;96376.88;5068244;28;20222;-75
2020/12/21 04:15:13;;;;;;;10.40;9.30;;;;;;;5.09;89.28;96375.72;5067499;28;20250;-78
2020/12/21 04:17:39;;;;;;;11.87;9.67;;;;;;;5.14;89.02;96372.81;5067764;28;20687;-75
2020/12/21 04:20:06;;;;;;;11.57;9.70;;;;;;;5.16;88.99;96376.06;5068186;28;20224;-76
2020/12/21 04:22:32;;;;;;;10.33;9.23;;;;;;;5.17;89.71;96370.03;5067808;28;20193;-76
2020/12/21 04:24:59;;;;;;;10.07;9.10;;;;;;;5.20;89.11;96377.41;5067507;28;20894;-77
2020/12/21 04:27:25;;;;;;;9.53;8.50;;;;;;;5.24;88.66;96372.88;5067725;28;20649;-79
2020/12/21 04:29:51;;;;;;;9.93;8.93;;;;;;;5.25;89.76;96362.53;5067531;28;20196;-78
2020/12/21 04:32:17;;;;;;;10.37;9.27;;;;;;;5.28;88.79;96364.84;5067459;28;20193;-75
2020/12/21 04:34:43;;;;;;;10.20;9.10;;;;;;;5.29;88.66;96356.25;5067579;28;20460;-75
2020/12/21 04:37:09;;;;;;;10.10;8.93;;;;;;;5.33;88.36;96364.47;5067985;28;20231;-78
2020/12/21 04:39:35;;;;;;;9.90;8.90;;;;;;;5.34;88.94;96366.09;5067349;28;20200;-75
2020/12/21 04:42:01;;;;;;;10.10;9.10;;;;;;;5.36;89.12;96366.78;5067684;28;20211;-80
2020/12/21 04:44:27;;;;;;;9.53;8.47;;;;;;;5.37;88.87;96364.09;5067308;28;20201;-75
2020/12/21 04:46:55;;;;;;;9.93;8.93;;;;;;;5.37;89.80;96368.41;5067277;28;20235;-76
2020/12/21 04:49:21;;;;;;;11.97;9.17;;;;;;;5.33;91.26;96365.28;5067425;28;20575;-78
2020/12/21 04:51:49;;;;;;;10.60;9.50;;;;;;;5.27;92.35;96367.53;5068517;28;20330;-73
2020/12/21 04:54:17;;;;;;;10.57;9.17;;;;;;;5.28;92.18;96369.94;5067079;28;20201;-74
2020/12/21 04:56:44;;;;;;;10.97;9.20;;;;;;;5.25;93.26;96372.75;5066758;28;20590;-76
2020/12/21 04:59:11;;;;;;;10.43;9.33;;;;;;;5.31;91.98;96372.25;5067430;28;20231;-79
2020/12/21 05:01:37;;;;;;;10.70;9.17;;;;;;;5.36;91.77;96374.44;5067106;28;20570;-79
2020/12/21 05:04:03;;;;;;;10.67;9.37;;;;;;;5.39;91.77;96377.53;5066926;28;20222;-76
2020/12/21 05:06:29;;;;;;;9.90;8.87;;;;;;;5.42;91.53;96382.41;5067240;28;20297;-79
2020/12/21 05:09:04;;;;;;;11.00;9.50;;;;;;;5.46;91.54;96375.28;5067163;28;20201;-76
2020/12/21 05:11:32;;;;;;;10.47;9.33;;;;;;;5.49;91.93;96377.59;5066132;28;20719;-76
2020/12/21 05:14:11;;;;;;;10.43;9.43;;;;;;;5.47;93.30;96370.06;5066920;28;20197;-78
2020/12/21 05:16:38;;;;;;;10.40;9.30;;;;;;;5.49;92.62;96369.94;5066797;28;20247;-76
2020/12/21 05:19:04;;;;;;;11.93;9.43;;;;;;;5.48;93.79;96374.25;5066786;28;20606;-78
2020/12/21 05:21:31;;;;;;;11.77;9.43;;;;;;;5.50;93.12;96367.28;5066858;28;20204;-76
2020/12/21 05:23:59;;;;;;;10.20;9.17;;;;;;;5.54;92.96;96362.72;5066650;28;20200;-75
2020/12/21 05:26:29;;;;;;;11.20;9.23;;;;;;;5.58;93.70;96376.84;5066864;28;20247;-75
2020/12/21 05:28:57;;;;;;;11.03;9.40;;;;;;;5.61;93.20;96366.38;5066869;28;20200;-76
2020/12/21 05:31:23;;;;;;;11.23;9.93;;;;;;;5.59;95.22;96354.66;5066959;28;20199;-75
2020/12/21 05:33:49;;;;;;;13.57;9.83;;;;;;;5.62;95.33;96362.06;5066398;28;20216;-75
2020/12/21 05:36:17;;;;;;;13.70;9.77;;;;;;;5.57;96.92;96352.25;5066654;28;20224;-78
2020/12/21 05:38:53;;;;;;;12.07;10.23;;;;;;;5.50;97.75;96348.56;5066501;28;20197;-74
2020/12/21 05:41:21;;;;;;;12.40;10.17;;;;;;;5.51;96.40;96348.47;5067228;28;20200;-75
2020/12/21 05:43:49;;;;;;;11.73;9.63;;;;;;;5.44;97.63;96343.97;5067468;28;20199;-77
2020/12/21 05:46:18;;;;;;;12.87;10.80;;;;;;;5.40;98.29;96343.41;5063290;28;20213;-81
2020/12/21 05:48:45;;;;;;;11.27;10.07;;;;;;;5.41;97.97;96342.47;5051279;28;20201;-80
2020/12/21 05:51:20;;;;;;;10.77;9.50;;;;;;;5.44;97.42;96329.44;5058055;28;20200;-79
2020/12/21 05:53:46;;;;;;;10.20;9.03;;;;;;;5.51;96.53;96335.69;5059272;28;20222;-75
2020/12/21 05:56:12;;;;;;;11.40;9.53;;;;;;;5.55;95.94;96333.69;5056556;28;20227;-76
2020/12/21 05:58:40;;;;;;;11.63;9.80;;;;;;;5.55;97.47;96324.28;5052334;28;20190;-77
2020/12/21 06:01:06;;;;;;;12.30;10.77;;;;;;;5.49;99.18;96314.56;5057141;28;20565;-76
2020/12/21 06:03:39;;;;;;;14.17;10.83;;;;;;;5.45;99.30;96320.84;5048781;28;20569;-76
2020/12/21 06:06:08;;;;;;;11.67;9.73;;;;;;;5.46;99.42;96332.69;5056734;28;20216;-76
2020/12/21 06:08:35;;;;;;;12.90;11.10;;;;;;;5.49;98.85;96327.34;5051696;28;20258;-76
2020/12/21 06:11:09;;;;;;;12.20;10.73;;;;;;;5.51;98.24;96320.34;5063858;28;20292;-79
2020/12/21 06:13:37;;;;;;;13.43;10.60;;;;;;;5.58;97.28;96315.53;5060210;28;20206;-77
2020/12/21 06:16:05;;;;;;;12.93;10.63;;;;;;;5.49;99.01;96299.25;5064089;28;20248;-76
2020/12/21 06:18:31;;;;;;;14.73;10.67;;;;;;;5.42;99.89;96297.31;5065286;28;20195;-76
2020/12/21 06:20:57;;;;;;;13.73;12.00;;;;;;;5.39;100.00;96290.72;5065780;28;20201;-76
2020/12/21 06:23:32;;;;;;;13.20;11.33;;;;;;;5.44;99.98;96290.34;5068844;28;20193;-76
2020/12/21 06:26:09;;;;;;;13.20;10.67;;;;;;;5.50;99.03;96292.41;5068566;28;20204;-80
2020/12/21 06:28:35;;;;;;;12.10;10.23;;;;;;;5.58;98.41;96300.22;5067198;28;20185;-79
2020/12/21 06:31:14;;;;;;;12.80;10.87;;;;;;;5.60;97.64;96302.63;5068807;28;20204;-76
2020/12/21 06:33:40;;;;;;;12.83;10.53;;;;;;;5.63;97.34;96303.19;5068793;28;20727;-76
2020/12/21 06:36:07;;;;;;;12.83;10.77;;;;;;;5.66;96.50;96297.03;5068386;28;20598;-76
2020/12/21 06:38:43;;;;;;;13.30;10.60;;;;;;;5.69;96.24;96294.22;5068175;28;20196;-79
2020/12/21 06:41:17;;;;;;;12.43;10.70;;;;;;;5.69;96.51;96289.09;5069117;28;20204;-75
2020/12/21 06:43:57;;;;;;;13.37;11.17;;;;;;;5.69;95.87;96302.69;5065284;28;20825;-80
2020/12/21 06:46:24;;;;;;;12.50;11.17;;;;;;;5.70;95.30;96306.88;5068893;28;20331;-79
2020/12/21 06:49:11;;;;;;;12.37;10.30;;;;;;;5.72;94.50;96299.06;5068750;28;20777;-77
2020/12/21 06:51:43;;;;;;;11.90;10.50;;;;;;;5.72;93.55;96297.31;5069681;28;20550;-75
2020/12/21 06:54:10;;;;;;;11.30;10.07;;;;;;;5.71;93.57;96305.94;5069511;28;20197;-80
2020/12/21 06:56:37;;;;;;;13.70;11.27;;;;;;;5.61;94.52;96309.38;5069754;28;20224;-79
2020/12/21 06:59:08;;;;;;;11.27;10.07;;;;;;;5.61;93.79;96317.84;5069228;28;20204;-77
2020/12/21 07:01:35;;;;;;;12.00;9.87;;;;;;;5.62;93.79;96319.47;5068977;28;20200;-74
2020/12/21 07:04:02;;;;;;;12.23;10.00;;;;;;;5.65;93.28;96320.94;5068674;28;20208;-78
2020/12/21 07:06:28;;;;;;;11.00;9.90;;;;;;;5.69;93.02;96312.09;5053586;28;20370;-77
2020/12/21 07:08:59;;;;;;;10.43;9.33;;;;;;;5.73;92.86;96326.25;5069018;28;20723;-76
2020/12/21 07:11:26;;;;;;;12.03;9.63;;;;;;;5.74;91.99;96323.56;5066088;28;20251;-79
2020/12/21 07:13:52;;;;;;;11.60;10.40;;;;;;;5.76;91.99;96318.31;5063466;28;20572;-76
2020/12/21 07:16:19;;;;;;;11.53;10.10;;;;;;;5.78;91.89;96324.09;5068365;28;20286;-77
2020/12/21 07:18:48;;;;;;;10.43;8.17;;;;;;;5.88;100.00;96318.13;5068569;28;20199;-76
2020/12/21 07:21:15;;;;;;;10.30;7.67;;;;;;;6.15;100.00;96312.44;5068947;28;20220;-77
2020/12/21 07:23:42;;;;;;;9.00;8.10;;;;;;;6.35;100.00;96313.25;5067743;28;20185;-77
2020/12/21 07:26:11;;;;;;;10.27;9.27;;;;;;;6.55;97.52;96309.75;5068617;28;20915;-80
2020/12/21 07:28:39;;;;;;;9.93;8.93;;;;;;;6.49;92.19;96310.31;5068174;28;20262;-80
2020/12/21 07:31:10;;;;;;;11.33;9.83;;;;;;;6.35;91.81;96310.69;5068437;28;20735;-76
2020/12/21 07:33:48;;;;;;;11.23;10.03;;;;;;;6.19;92.37;96311.19;5067291;28;20200;-76
2020/12/21 07:36:14;;;;;;;12.77;9.63;;;;;;;6.17;92.37;96312.28;5067620;28;20755;-77
2020/12/21 07:38:40;;;;;;;10.97;9.83;;;;;;;6.16;91.54;96324.25;5067459;28;20228;-77
2020/12/21 07:41:08;;;;;;;9.93;8.90;;;;;;;6.16;90.82;96329.34;5068823;28;20611;-77
2020/12/21 07:43:38;;;;;;;9.67;8.67;;;;;;;6.14;90.56;96338.94;5065881;28;20196;-77
2020/12/21 07:46:06;;;;;;;10.67;9.67;;;;;;;6.14;90.66;96345.78;5067695;28;20227;-76
2020/12/21 07:48:33;;;;;;;11.67;9.63;;;;;;;6.12;90.67;96340.81;5059603;28;20201;-77
2020/12/21 07:51:04;;;;;;;11.17;9.73;;;;;;;6.17;90.27;96337.84;5056385;28;20189;-76
2020/12/21 07:53:36;;;;;;;10.70;9.50;;;;;;;6.17;89.95;96346.31;5053545;28;20224;-77
2020/12/21 07:56:02;;;;;;;10.83;9.33;;;;;;;6.16;89.40;96349.81;5060054;28;20319;-76
2020/12/21 07:58:28;;;;;;;10.33;9.33;;;;;;;6.20;89.32;96352.91;5057189;28;20930;-76
2020/12/21 08:00:57;;;;;;;10.70;9.60;;;;;;;6.27;89.22;96353.22;5066677;28;20193;-76
2020/12/21 08:03:24;;;;;;;13.93;9.50;;;;;;;6.31;88.69;96354.59;5064219;28;20193;-76
2020/12/21 08:05:51;;;;;;;9.93;8.93;;;;;;;6.40;88.49;96364.00;5059230;28;20289;-77
2020/12/21 08:08:22;;;;;;;10.00;8.93;;;;;;;6.51;88.74;96356.25;5059165;28;20201;-77
2020/12/21 08:10:55;;;;;;;9.57;8.57;;;;;;;6.66;88.21;96357.47;5063310;28;20224;-77
2020/12/21 08:13:21;;;;;;;9.67;8.67;;;;;;;6.76;87.84;96349.78;5059187;28;20279;-76
2020/12/21 08:15:47;;;;;;;9.87;8.87;;;;;;;6.82;88.41;96351.81;5064975;28;20251;-77
2020/12/21 08:18:13;;;;;;;13.33;9.77;;;;;;;6.81;88.28;96342.50;5057195;28;20223;-75
2020/12/21 08:20:42;;;;;;;10.63;8.90;;;;;;;6.89;87.79;96330.66;5061195;28;20203;-77
2020/12/21 08:23:08;;;;;;;10.07;9.07;;;;;;;6.99;87.00;96333.22;5056699;28;20292;-76
2020/12/21 08:25:34;;;;;;;10.27;9.27;;;;;;;7.03;86.89;96331.19;5063601;28;20657;-77
2020/12/21 08:28:00;;;;;;;13.50;10.27;;;;;;;7.02;86.27;96335.50;5050919;28;20539;-77
2020/12/21 08:30:26;;;;;;;13.00;11.07;;;;;;;7.02;85.33;96332.13;5051132;28;20197;-77
2020/12/21 08:32:55;;;;;;;18.47;11.97;;;;;;;7.02;85.51;96332.94;5064678;28;20199;-79
2020/12/21 08:35:27;;;;;;;14.87;11.83;;;;;;;7.02;85.25;96330.38;5057355;28;20244;-76
2020/12/21 08:38:04;;;;;;;13.27;11.87;;;;;;;6.99;85.04;96329.84;5053849;28;20196;-76
2020/12/21 08:40:30;;;;;;;16.17;12.37;;;;;;;6.96;84.91;96323.25;5057794;28;20201;-76
2020/12/21 08:42:56;;;;;;;15.70;13.10;;;;;;;6.93;85.34;96326.06;5057415;28;20200;-77
2020/12/21 08:45:22;;;;;;;16.10;14.37;;;;;;;6.92;85.35;96322.72;5058939;28;20587;-76
2020/12/21 08:47:49;;;;;;;16.20;13.07;;;;;;;6.90;85.47;96321.25;5057267;28;20229;-77
2020/12/21 08:50:16;;;;;;;17.03;12.33;;;;;;;6.89;85.51;96319.63;5063827;28;20197;-80
2020/12/21 08:52:42;;;;;;;17.30;12.90;;;;;;;6.88;85.17;96321.38;5066773;28;20242;-75
2020/12/21 08:55:08;;;;;;;14.90;13.23;;;;;;;6.85;85.35;96329.31;5066279;28;20228;-76
2020/12/21 08:57:35;;;;;;;15.47;12.63;;;;;;;6.84;85.81;96322.59;5067332;28;20608;-80
2020/12/21 09:00:01;;;;;;;14.93;12.83;;;;;;;6.83;85.76;96320.97;5064827;28;20557;-79
2020/12/21 09:02:27;;;;;;;13.60;12.30;;;;;;;6.84;85.44;96316.66;5066406;28;20205;-77
2020/12/21 09:04:53;;;;;;;13.40;12.10;;;;;;;6.80;87.00;96320.41;5066309;28;20222;-76
2020/12/21 09:07:18;;;;;;;13.90;12.40;;;;;;;6.85;86.01;96319.09;5066568;28;20258;-77
2020/12/21 09:09:45;;;;;;;13.63;11.67;;;;;;;6.89;86.19;96317.88;5066934;28;20204;-77
2020/12/21 09:12:11;;;;;;;13.70;11.67;;;;;;;6.90;85.81;96328.91;5067405;28;20192;-77
2020/12/21 09:14:37;;;;;;;15.40;11.67;;;;;;;6.90;85.39;96324.63;5066196;28;20685;-77
2020/12/21 09:17:03;;;;;;;12.03;10.63;;;;;;;6.93;85.50;96328.63;5066426;28;20226;-77
2020/12/21 09:19:32;;;;;;;13.57;11.60;;;;;;;6.96;85.01;96325.00;5065855;28;20262;-75
2020/12/21 09:21:58;;;;;;;12.57;11.27;;;;;;;6.96;84.86;96323.25;5066307;28;20201;-77
2020/12/21 09:24:23;;;;;;;12.70;11.40;;;;;;;6.92;84.87;96309.13;5065551;28;20215;-77
2020/12/21 09:26:50;;;;;;;12.50;11.20;;;;;;;6.89;84.89;96312.75;5066696;28;20793;-76
2020/12/21 09:29:16;;;;;;;13.67;12.27;;;;;;;6.87;85.48;96306.16;5065916;28;20760;-77
2020/12/21 09:31:42;;;;;;;13.23;11.67;;;;;;;6.78;86.29;96312.06;5064307;28;20201;-75
2020/12/21 09:34:08;;;;;;;12.73;11.47;;;;;;;6.76;87.21;96319.88;5065800;28;20201;-77
2020/12/21 09:36:35;;;;;;;13.07;11.67;;;;;;;6.90;86.96;96321.25;5065648;28;20224;-79
2020/12/21 09:39:01;;;;;;;15.13;12.00;;;;;;;7.03;86.24;96313.28;5065772;28;20225;-76
2020/12/21 09:41:27;;;;;;;14.30;12.80;;;;;;;7.12;85.97;96315.03;5066808;28;20275;-76
2020/12/21 09:43:54;;;;;;;13.33;11.10;;;;;;;7.19;85.83;96298.16;5066644;28;20208;-77
2020/12/21 09:46:21;;;;;;;12.50;11.20;;;;;;;7.24;85.66;96294.25;5067420;28;20605;-77
2020/12/21 09:48:48;;;;;;;15.47;11.33;;;;;;;7.31;85.51;96283.44;5065602;28;20193;-80
2020/12/21 09:51:14;;;;;;;12.77;11.17;;;;;;;7.33;85.66;96284.09;5066314;28;20193;-77
2020/12/21 09:53:40;;;;;;;12.63;11.10;;;;;;;7.30;86.23;96280.09;5066781;28;20614;-79
2020/12/21 09:56:09;;;;;;;13.37;10.97;;;;;;;7.34;86.28;96272.91;5066125;28;20220;-77
2020/12/21 09:58:35;;;;;;;10.83;8.93;;;;;;;7.30;88.05;96274.97;5066390;28;20667;-76
2020/12/21 10:01:01;;;;;;;7.93;7.13;;;;;;;7.34;91.35;96270.34;5061754;28;20200;-77
2020/12/21 10:03:27;;;;;;;9.80;8.07;;;;;;;7.42;90.28;96258.47;5066487;28;20204;-77
2020/12/21 10:05:53;;;;;;;8.33;7.43;;;;;;;7.60;89.90;96251.63;5066174;28;20270;-79
2020/12/21 10:08:19;;;;;;;7.13;6.43;;;;;;;7.65;88.62;96242.72;5066374;28;20199;-80
2020/12/21 10:10:47;;;;;;;7.97;6.07;;;;;;;7.85;91.66;96247.63;5066383;28;20751;-78
2020/12/21 10:13:12;;;;;;;7.43;6.20;;;;;;;8.06;86.50;96241.44;5066835;28;20193;-77
2020/12/21 10:15:38;;;;;;;7.83;6.63;;;;;;;8.08;84.81;96240.31;5066600;28;20236;-76
2020/12/21 10:18:05;;;;;;;8.17;6.90;;;;;;;8.01;84.43;96236.72;5066756;28;20563;-76
2020/12/21 10:20:31;;;;;;;7.80;7.00;;;;;;;8.03;84.43;96234.81;5066115;28;20197;-77
2020/12/21 10:22:57;;;;;;;8.20;6.50;;;;;;;8.01;84.24;96235.91;5066107;28;20199;-76
2020/12/21 10:25:23;;;;;;;8.10;6.70;;;;;;;7.93;85.45;96237.44;5064397;28;20215;-77
2020/12/21 10:27:50;;;;;;;7.30;6.60;;;;;;;7.99;85.35;96230.94;5065944;28;20228;-77
2020/12/21 10:30:16;;;;;;;7.67;6.87;;;;;;;8.00;85.25;96235.13;5064498;28;20201;-77
2020/12/21 10:32:43;;;;;;;7.60;6.50;;;;;;;8.09;84.87;96236.78;5066183;28;20212;-77
2020/12/21 10:35:09;;;;;;;7.63;6.33;;;;;;;8.00;84.72;96240.25;5065747;28;20653;-76
2020/12/21 10:37:35;;;;;;;7.87;6.97;;;;;;;7.96;85.42;96232.03;5065499;28;20193;-75
2020/12/21 10:40:01;;;;;;;8.37;7.37;;;;;;;8.00;86.06;96229.97;5065876;28;20203;-82
2020/12/21 10:42:27;;;;;;;7.37;6.67;;;;;;;8.01;85.44;96235.91;5062817;28;20649;-77
2020/12/21 10:44:53;;;;;;;8.80;7.27;;;;;;;8.06;85.26;96228.59;5065067;28;20204;-75
2020/12/21 10:47:19;;;;;;;9.37;7.33;;;;;;;8.06;85.90;96221.72;5065974;28;20199;-77
2020/12/21 10:49:45;;;;;;;8.67;6.70;;;;;;;8.12;85.47;96228.81;5064987;28;20390;-76
2020/12/21 10:52:11;;;;;;;8.00;6.73;;;;;;;8.13;85.35;96230.44;5065012;28;20193;-80
2020/12/21 10:54:37;;;;;;;7.73;6.77;;;;;;;8.14;85.44;96223.53;5065658;28;20586;-78
2020/12/21 10:57:06;;;;;;;7.50;6.73;;;;;;;8.14;85.85;96226.91;5066126;28;20205;-78
2020/12/21 10:59:32;;;;;;;7.47;6.57;;;;;;;8.21;84.92;96227.97;5065912;28;20702;-77
2020/12/21 11:01:57;;;;;;;7.10;6.43;;;;;;;8.16;85.13;96232.72;5064463;28;20197;-79
2020/12/21 11:04:23;;;;;;;8.53;7.63;;;;;;;8.12;85.37;96228.00;5064335;28;20577;-80
2020/12/21 11:06:49;;;;;;;7.23;6.53;;;;;;;8.13;85.25;96215.03;5060235;28;20259;-77
2020/12/21 11:09:16;;;;;;;7.57;6.77;;;;;;;8.12;85.66;96217.75;5067031;28;20204;-77
2020/12/21 11:11:42;;;;;;;7.60;6.70;;;;;;;8.16;85.40;96211.38;5070295;28;20280;-77
2020/12/21 11:14:08;;;;;;;6.80;6.20;;;;;;;8.21;85.05;96219.44;5070379;28;20201;-76
2020/12/21 11:16:34;;;;;;;7.70;6.90;;;;;;;8.23;84.68;96212.41;5069497;28;20220;-79
2020/12/21 11:19:00;;;;;;;7.07;5.80;;;;;;;8.25;84.30;96216.47;5069738;28;20201;-76
2020/12/21 11:21:26;;;;;;;8.23;6.77;;;;;;;8.27;84.50;96224.78;5068512;28;20208;-77
2020/12/21 11:23:52;;;;;;;10.90;7.97;;;;;;;8.26;84.06;96219.84;5069441;28;20215;-80
2020/12/21 11:26:19;;;;;;;11.63;9.20;;;;;;;8.25;84.06;96213.91;5067290;28;20240;-77
2020/12/21 11:28:45;;;;;;;12.83;10.27;;;;;;;8.23;84.10;96218.34;5069855;28;20204;-76
2020/12/21 11:31:15;;;;;;;12.90;10.63;;;;;;;8.18;84.96;96217.19;5069631;28;20231;-77
2020/12/21 11:33:40;;;;;;;13.47;11.30;;;;;;;8.09;84.93;96215.47;5069117;28;20212;-76